createdAt,value
2023-03-26T00:00:24.884Z,99225.44
2023-03-26T00:03:15.973Z,99224.52
2023-03-26T00:05:47.683Z,99229.69
2023-03-26T00:08:17.182Z,99229.02
2023-03-26T00:10:46.772Z,99222.69
2023-03-26T00:13:15.507Z,99226.48
2023-03-26T00:15:44.297Z,99219.73
2023-03-26T00:18:13.149Z,99217.18
2023-03-26T00:20:42.015Z,99217.69
2023-03-26T00:23:10.662Z,99215.45
2023-03-26T00:25:41.068Z,99212.73
2023-03-26T00:28:10.046Z,99212.71
2023-03-26T00:30:41.119Z,99212.54
2023-03-26T00:33:11.304Z,99206.94
2023-03-26T00:35:40.014Z,99206.57
2023-03-26T00:38:08.771Z,99207.56
2023-03-26T00:40:37.569Z,99203.45
2023-03-26T00:43:18.023Z,99199.89
2023-03-26T00:45:48.526Z,99195.45
2023-03-26T00:48:18.435Z,99195.33
2023-03-26T00:50:50.640Z,99200.62
2023-03-26T00:53:20.398Z,99199.99
2023-03-26T00:55:59.688Z,99203.30
2023-03-26T00:58:30.465Z,99200.13
2023-03-26T01:01:02.877Z,99200.85
2023-03-26T01:03:34.782Z,99203.50
2023-03-26T01:06:08.001Z,99197.17
2023-03-26T01:08:40.734Z,99199.24
2023-03-26T01:11:16.287Z,99193.08
2023-03-26T01:13:48.692Z,99194.14
2023-03-26T01:16:25.145Z,99193.64
2023-03-26T01:18:58.203Z,99191.20
2023-03-26T01:21:31.377Z,99190.45
2023-03-26T01:24:02.547Z,99189.48
2023-03-26T01:27:00.954Z,99184.23
2023-03-26T01:29:38.773Z,99177.11
2023-03-26T01:32:23.105Z,99173.45
2023-03-26T01:35:09.358Z,99172.23
2023-03-26T01:37:47.746Z,99173.31
2023-03-26T01:40:25.255Z,99171.98
2023-03-26T01:43:01.137Z,99169.10
2023-03-26T01:45:36.313Z,99162.33
2023-03-26T01:48:06.978Z,99160.65
2023-03-26T01:50:36.111Z,99161.49
2023-03-26T01:53:05.559Z,99156.59
2023-03-26T01:55:49.169Z,99161.07
2023-03-26T01:58:26.517Z,99159.10
2023-03-26T02:01:06.815Z,99155.07
2023-03-26T02:03:44.401Z,99148.08
2023-03-26T02:06:20.992Z,99150.77
2023-03-26T02:08:53.480Z,99143.66
2023-03-26T02:11:23.330Z,99140.11
2023-03-26T02:13:52.967Z,99134.98
2023-03-26T02:16:23.044Z,99131.61
2023-03-26T02:18:55.148Z,99131.98
2023-03-26T02:21:26.248Z,99127.91
2023-03-26T02:24:02.257Z,99126.58
2023-03-26T02:26:37.099Z,99126.17
2023-03-26T02:29:14.246Z,99126.70
2023-03-26T02:31:45.600Z,99123.70
2023-03-26T02:34:14.436Z,99126.91
2023-03-26T02:36:49.268Z,99127.60
2023-03-26T03:09:15.892Z,99126.36
2023-03-26T03:12:04.832Z,99123.88
2023-03-26T03:14:35.961Z,99126.41
2023-03-26T03:17:10.336Z,99126.45
2023-03-26T03:19:40.587Z,99124.81
2023-03-26T03:22:10.796Z,99125.77
2023-03-26T03:24:43.292Z,99124.42
2023-03-26T03:27:13.212Z,99122.02
2023-03-26T03:29:47.104Z,99121.81
2023-03-26T03:32:45.508Z,99126.92
2023-03-26T03:35:15.604Z,99123.73
2023-03-26T03:37:46.487Z,99121.61
2023-03-26T03:40:15.823Z,99125.11
2023-03-26T03:42:44.870Z,99129.62
2023-03-26T03:45:15.260Z,99124.52
2023-03-26T03:47:56.470Z,99129.67
2023-03-26T03:50:31.351Z,99132.59
2023-03-26T03:53:15.791Z,99136.73
2023-03-26T03:55:52.393Z,99134.06
2023-03-26T03:58:24.352Z,99135.98
2023-03-26T04:01:00.223Z,99136.94
2023-03-26T04:03:48.082Z,99131.61
2023-03-26T04:06:18.679Z,99130.38
2023-03-26T04:08:48.281Z,99132.34
2023-03-26T04:11:18.120Z,99129.13
2023-03-26T04:14:12.349Z,99130.13
2023-03-26T04:16:54.526Z,99128.64
2023-03-26T04:19:24.222Z,99127.64
2023-03-26T04:21:53.855Z,99123.50
2023-03-26T04:24:24.104Z,99122.98
2023-03-26T04:27:31.552Z,99120.02
2023-03-26T04:30:21.459Z,99122.59
2023-03-26T04:33:16.482Z,99116.69
2023-03-26T04:35:47.836Z,99120.17
2023-03-26T04:38:17.828Z,99117.52
2023-03-26T04:40:49.224Z,99118.77
2023-03-26T04:43:21.064Z,99118.17
2023-03-26T04:46:14.189Z,99118.77
2023-03-26T04:48:50.432Z,99120.02
2023-03-26T04:51:29.279Z,99120.20
2023-03-26T04:54:00.241Z,99117.38
2023-03-26T04:56:44.726Z,99118.73
2023-03-26T04:59:48.152Z,99119.54
2023-03-26T05:02:17.645Z,99115.23
2023-03-26T05:04:56.641Z,99116.81
2023-03-26T05:07:27.371Z,99117.38
2023-03-26T05:09:57.905Z,99111.61
2023-03-26T05:12:53.167Z,99109.02
2023-03-26T05:15:41.974Z,99110.80
2023-03-26T05:18:19.319Z,99109.13
2023-03-26T05:20:53.039Z,99109.13
2023-03-26T05:23:22.213Z,99109.63
2023-03-26T05:26:00.121Z,99109.69
2023-03-26T05:28:29.088Z,99109.03
2023-03-26T05:31:06.506Z,99110.61
2023-03-26T05:33:38.548Z,99110.22
2023-03-26T05:36:13.263Z,99107.38
2023-03-26T05:38:50.003Z,99107.54
2023-03-26T05:41:42.766Z,99104.48
2023-03-26T05:44:12.066Z,99103.45
2023-03-26T05:46:41.632Z,99098.63
2023-03-26T05:49:12.532Z,99102.48
2023-03-26T05:51:41.511Z,99105.27
2023-03-26T05:54:31.975Z,99108.39
2023-03-26T05:57:27.713Z,99107.48
2023-03-26T06:00:21.112Z,99106.77
2023-03-26T06:02:56.837Z,99111.42
2023-03-26T06:05:49.572Z,99106.23
2023-03-26T06:08:33.039Z,99112.05
2023-03-26T06:11:03.501Z,99111.50
2023-03-26T06:13:36.635Z,99114.09
2023-03-26T06:16:07.421Z,99117.63
2023-03-26T06:18:39.366Z,99123.15
2023-03-26T06:21:41.121Z,99123.39
2023-03-26T06:24:21.723Z,99122.66
2023-03-26T06:27:11.412Z,99122.14
2023-03-26T06:30:18.476Z,99124.30
2023-03-26T06:33:08.276Z,99123.55
2023-03-26T06:35:45.535Z,99121.78
2023-03-26T06:38:15.645Z,99123.77
2023-03-26T06:40:49.341Z,99126.25
2023-03-26T06:43:46.486Z,99127.98
2023-03-26T06:46:37.589Z,99126.36
2023-03-26T06:49:43.106Z,99125.27
2023-03-26T06:52:41.995Z,99123.69
2023-03-26T06:55:27.113Z,99123.36
2023-03-26T06:58:27.852Z,99123.27
2023-03-26T07:01:16.156Z,99122.58
2023-03-26T07:04:04.376Z,99121.89
2023-03-26T07:06:54.659Z,99120.51
2023-03-26T07:09:42.417Z,99115.95
2023-03-26T07:12:47.359Z,99114.31
2023-03-26T07:15:24.163Z,99114.73
2023-03-26T07:17:54.832Z,99112.66
2023-03-26T07:20:29.712Z,99112.98
2023-03-26T07:22:59.844Z,99115.26
2023-03-26T07:25:40.844Z,99116.11
2023-03-26T07:28:37.105Z,99117.88
2023-03-26T07:31:26.516Z,99120.48
2023-03-26T07:34:18.370Z,99120.71
2023-03-26T07:37:26.502Z,99118.25
2023-03-26T07:40:35.103Z,99118.77
2023-03-26T07:43:58.504Z,99118.45
2023-03-26T07:46:41.122Z,99112.58
2023-03-26T07:49:35.008Z,99105.51
2023-03-26T07:52:31.759Z,99107.59
2023-03-26T07:55:19.966Z,99109.31
2023-03-26T07:58:22.543Z,99105.15
2023-03-26T08:01:19.280Z,99102.56
2023-03-26T08:04:24.257Z,99098.51
2023-03-26T08:07:39.398Z,99102.48
2023-03-26T08:10:33.488Z,99099.70
2023-03-26T08:13:21.168Z,99097.55
2023-03-26T08:16:00.256Z,99097.70
2023-03-26T08:18:44.472Z,99095.29
2023-03-26T08:21:20.887Z,99098.52
2023-03-26T08:24:01.744Z,99097.52
2023-03-26T08:26:40.905Z,99100.29
2023-03-26T08:29:20.610Z,99094.89
2023-03-26T08:31:52.398Z,99090.76
2023-03-26T08:34:21.471Z,99094.69
2023-03-26T08:36:51.582Z,99096.07
2023-03-26T08:39:21.843Z,99092.05
2023-03-26T08:42:30.042Z,99092.48
2023-03-26T08:45:36.685Z,99092.08
2023-03-26T08:48:35.694Z,99086.02
2023-03-26T08:51:34.234Z,99084.95
2023-03-26T08:54:47.447Z,99088.84
2023-03-26T08:57:37.841Z,99085.00
2023-03-26T09:00:35.807Z,99085.58
2023-03-26T09:03:39.273Z,99085.51
2023-03-26T09:06:38.488Z,99085.92
2023-03-26T09:09:42.791Z,99088.34
2023-03-26T09:12:52.042Z,99088.98
2023-03-26T09:15:53.146Z,99083.84
2023-03-26T09:18:55.059Z,99083.45
2023-03-26T09:22:10.682Z,99081.72
2023-03-26T09:25:10.533Z,99075.42
2023-03-26T09:27:40.658Z,99074.72
2023-03-26T09:30:37.528Z,99075.96
2023-03-26T09:33:52.038Z,99071.86
2023-03-26T09:36:46.490Z,99072.62
2023-03-26T09:39:30.390Z,99073.52
2023-03-26T09:42:16.550Z,99072.85
2023-03-26T09:45:02.915Z,99071.45
2023-03-26T09:47:56.586Z,99074.66
2023-03-26T09:50:40.901Z,99073.52
2023-03-26T09:53:26.386Z,99071.83
2023-03-26T09:56:09.643Z,99067.80
2023-03-26T09:58:56.776Z,99068.20
2023-03-26T10:01:44.883Z,99065.10
2023-03-26T10:04:45.385Z,99063.36
2023-03-26T10:07:36.042Z,99061.73
2023-03-26T10:10:16.528Z,99058.77
2023-03-26T10:13:02.007Z,99059.69
2023-03-26T10:15:58.015Z,99054.52
2023-03-26T10:18:40.830Z,99056.83
2023-03-26T10:21:24.618Z,99057.28
2023-03-26T10:24:11.155Z,99057.09
2023-03-26T10:27:09.741Z,99053.15
2023-03-26T10:30:08.150Z,99051.56
2023-03-26T10:32:46.804Z,99050.10
2023-03-26T10:35:36.996Z,99050.42
2023-03-26T10:38:20.319Z,99057.77
2023-03-26T10:41:13.606Z,99077.58
2023-03-26T10:44:14.085Z,99087.40
2023-03-26T10:47:14.036Z,99093.23
2023-03-26T10:50:16.963Z,99079.66
2023-03-26T10:52:58.890Z,99074.40
2023-03-26T10:55:33.463Z,99071.29
2023-03-26T10:58:12.897Z,99067.48
2023-03-26T11:00:50.150Z,99056.40
2023-03-26T11:03:38.091Z,99050.90
2023-03-26T11:06:18.644Z,99045.78
2023-03-26T11:08:52.157Z,99044.27
2023-03-26T11:11:29.804Z,99044.59
2023-03-26T11:14:06.613Z,99047.63
2023-03-26T11:16:55.097Z,99044.55
2023-03-26T11:19:31.469Z,99042.84
2023-03-26T11:22:13.717Z,99044.71
2023-03-26T11:25:09.312Z,99043.28
2023-03-26T11:27:56.335Z,99045.71
2023-03-26T11:30:36.378Z,99041.38
2023-03-26T11:33:10.754Z,99038.96
2023-03-26T11:35:45.716Z,99037.86
2023-03-26T11:38:21.456Z,99039.67
2023-03-26T11:40:55.293Z,99037.23
2023-03-26T11:43:49.141Z,99034.23
2023-03-26T11:46:25.834Z,99032.71
2023-03-26T11:48:58.885Z,99034.52
2023-03-26T11:51:33.309Z,99039.79
2023-03-26T11:54:03.465Z,99036.05
2023-03-26T11:56:35.836Z,99035.67
2023-03-26T11:59:11.718Z,99037.90
2023-03-26T12:01:51.178Z,99033.25
2023-03-26T12:04:28.684Z,99029.45
2023-03-26T12:07:08.852Z,99027.23
2023-03-26T12:09:48.956Z,99026.09
2023-03-26T12:12:18.654Z,99031.13
2023-03-26T12:14:48.301Z,99033.05
2023-03-26T12:17:31.405Z,99036.20
2023-03-26T12:20:06.156Z,99046.45
2023-03-26T12:22:37.318Z,99043.16
2023-03-26T12:25:19.836Z,99046.41
2023-03-26T12:27:52.763Z,99044.39
2023-03-26T12:30:24.876Z,99046.95
2023-03-26T12:32:59.674Z,99043.02
2023-03-26T12:35:34.372Z,99038.39
2023-03-26T12:38:22.721Z,99035.83
2023-03-26T12:41:06.238Z,99031.60
2023-03-26T12:44:54.132Z,99031.88
2023-03-26T12:47:59.337Z,99026.17
2023-03-26T12:49:30.023Z,99026.50
2023-03-26T12:52:11.495Z,99025.29
2023-03-26T12:54:50.227Z,99026.38
2023-03-26T12:57:23.388Z,99029.85
2023-03-26T13:00:12.856Z,99037.84
2023-03-26T13:03:06.722Z,99044.49
2023-03-26T13:05:50.337Z,99043.09
2023-03-26T13:08:51.690Z,99044.17
2023-03-26T13:11:29.377Z,99043.91
2023-03-26T13:14:11.722Z,99030.67
2023-03-26T13:16:49.341Z,99035.20
2023-03-26T13:19:28.310Z,99032.11
2023-03-26T13:22:13.655Z,99030.83
2023-03-26T13:24:53.077Z,99029.08
2023-03-26T13:27:35.233Z,99031.77
2023-03-26T13:30:15.018Z,99037.11
2023-03-26T13:32:58.091Z,99035.10
2023-03-26T13:35:33.496Z,99034.66
2023-03-26T13:38:10.042Z,99035.38
2023-03-26T13:40:52.818Z,99033.24
2023-03-26T13:43:36.488Z,99028.17
2023-03-26T13:46:16.733Z,99036.39
2023-03-26T13:48:52.488Z,99045.67
2023-03-26T13:51:29.810Z,99053.55
2023-03-26T13:54:05.346Z,99051.39
2023-03-26T13:56:43.368Z,99045.09
2023-03-26T13:59:20.584Z,99041.41
2023-03-26T14:01:54.826Z,99041.28
2023-03-26T14:04:32.065Z,99039.26
2023-03-26T14:07:09.834Z,99037.83
2023-03-26T14:09:48.851Z,99040.82
2023-03-26T14:12:40.180Z,99036.84
2023-03-26T14:15:16.649Z,99028.27
2023-03-26T14:17:51.949Z,99023.84
2023-03-26T14:20:56.512Z,99027.69
2023-03-26T14:24:12.589Z,99022.80
2023-03-26T14:27:07.005Z,99031.98
2023-03-26T14:29:59.501Z,99026.81
2023-03-26T14:32:45.422Z,99032.95
2023-03-26T14:35:36.831Z,99020.52
2023-03-26T14:38:27.904Z,99026.80
2023-03-26T14:41:02.337Z,99022.65
2023-03-26T14:44:05.350Z,99021.61
2023-03-26T14:46:50.690Z,99023.83
2023-03-26T14:49:56.725Z,99023.17
2023-03-26T14:52:36.442Z,99022.50
2023-03-26T14:55:16.462Z,99028.01
2023-03-26T14:58:03.292Z,99024.05
2023-03-26T15:01:08.341Z,99024.40
2023-03-26T15:04:40.242Z,99026.15
2023-03-26T15:07:41.051Z,99025.54
2023-03-26T15:10:38.669Z,99023.81
2023-03-26T15:13:32.746Z,99025.54
2023-03-26T15:16:19.786Z,99024.36
2023-03-26T15:19:36.362Z,99029.52
2023-03-26T15:22:47.581Z,99030.38
2023-03-26T15:25:48.684Z,99036.83
2023-03-26T15:29:13.402Z,99040.42
2023-03-26T15:32:15.456Z,99038.17
2023-03-26T15:35:15.326Z,99045.86
2023-03-26T15:38:17.380Z,99041.25
2023-03-26T15:40:57.824Z,99041.34
2023-03-26T15:44:22.313Z,99043.49
2023-03-26T15:46:58.647Z,99047.83
2023-03-26T15:49:39.588Z,99046.52
2023-03-26T15:52:27.942Z,99049.92
2023-03-26T15:55:05.198Z,99054.42
2023-03-26T15:57:44.013Z,99054.17
2023-03-26T16:00:23.055Z,99051.33
2023-03-26T16:03:14.343Z,99056.90
2023-03-26T16:06:07.669Z,99056.31
2023-03-26T16:08:46.404Z,99058.20
2023-03-26T16:11:35.995Z,99058.34
2023-03-26T16:14:17.174Z,99056.86
2023-03-26T16:16:57.966Z,99055.79
2023-03-26T16:19:49.584Z,99052.76
2023-03-26T16:22:43.954Z,99056.36
2023-03-26T16:25:32.208Z,99058.13
2023-03-26T16:28:28.513Z,99056.05
2023-03-26T16:31:36.753Z,99056.95
2023-03-26T16:34:26.741Z,99056.88
2023-03-26T16:36:58.824Z,99060.39
2023-03-26T16:39:43.043Z,99064.73
2023-03-26T16:42:30.868Z,99066.25
2023-03-26T16:45:13.498Z,99065.18
2023-03-26T16:47:55.086Z,99068.45
2023-03-26T16:50:33.421Z,99068.35
2023-03-26T16:53:15.898Z,99071.14
2023-03-26T16:55:53.308Z,99074.20
2023-03-26T16:58:33.162Z,99078.63
2023-03-26T17:01:11.342Z,99083.06
2023-03-26T17:03:45.160Z,99087.05
2023-03-26T17:06:46.508Z,99090.69
2023-03-26T17:09:28.493Z,99091.35
2023-03-26T17:12:07.760Z,99097.41
2023-03-26T17:14:56.377Z,99099.90
2023-03-26T17:17:46.779Z,99101.36
2023-03-26T17:20:32.587Z,99104.88
2023-03-26T17:23:21.316Z,99101.33
2023-03-26T17:26:03.317Z,99103.63
2023-03-26T17:28:52.620Z,99103.20
2023-03-26T17:31:38.416Z,99100.38
2023-03-26T17:34:55.597Z,99100.75
2023-03-26T17:37:45.019Z,99099.44
2023-03-26T17:40:51.711Z,99097.73
2023-03-26T17:43:50.172Z,99100.02
2023-03-26T17:46:33.568Z,99097.20
2023-03-26T17:49:14.571Z,99100.29
2023-03-26T17:51:51.649Z,99100.30
2023-03-26T17:54:26.767Z,99102.58
2023-03-26T17:57:04.675Z,99105.84
2023-03-26T17:59:40.307Z,99103.50
2023-03-26T18:02:16.309Z,99101.42
2023-03-26T18:04:48.611Z,99103.53
2023-03-26T18:07:49.415Z,99101.77
2023-03-26T18:10:34.005Z,99101.94
2023-03-26T18:13:20.931Z,99101.02
2023-03-26T18:16:00.787Z,99107.71
2023-03-26T18:18:36.258Z,99106.39
2023-03-26T18:21:07.246Z,99111.56
2023-03-26T18:23:38.896Z,99114.00
2023-03-26T18:26:14.118Z,99113.15
2023-03-26T18:28:45.781Z,99110.17
2023-03-26T18:31:20.074Z,99112.88
2023-03-26T18:33:54.268Z,99112.66
2023-03-26T18:36:28.992Z,99116.15
2023-03-26T18:39:00.629Z,99112.23
2023-03-26T18:41:36.839Z,99113.41
2023-03-26T18:44:08.802Z,99108.43
2023-03-26T18:46:39.721Z,99109.23
2023-03-26T18:49:13.858Z,99103.96
2023-03-26T18:51:56.142Z,99101.37
2023-03-26T18:54:32.932Z,99100.77
2023-03-26T18:57:15.411Z,99096.98
2023-03-26T18:59:45.861Z,99092.77
2023-03-26T19:02:17.648Z,99087.01
2023-03-26T19:04:53.926Z,99084.31
2023-03-26T19:07:27.220Z,99077.23
2023-03-26T19:09:57.369Z,99073.13
2023-03-26T19:12:31.869Z,99073.38
2023-03-26T19:15:07.896Z,99072.84
2023-03-26T19:17:40.623Z,99074.46
2023-03-26T19:20:16.721Z,99069.02
2023-03-26T19:22:46.254Z,99066.67
2023-03-26T19:25:22.456Z,99067.14
2023-03-26T19:27:52.167Z,99065.46
2023-03-26T19:30:29.582Z,99065.52
2023-03-26T19:33:12.763Z,99060.45
2023-03-26T19:35:48.524Z,99056.56
2023-03-26T19:38:24.621Z,99056.59
2023-03-26T19:40:58.066Z,99054.39
2023-03-26T19:43:28.352Z,99055.66
2023-03-26T19:46:01.295Z,99054.85
2023-03-26T19:48:45.710Z,99053.74
2023-03-26T19:51:22.379Z,99055.86
2023-03-26T19:53:55.636Z,99058.68
2023-03-26T19:56:27.335Z,99055.98
2023-03-26T19:58:58.664Z,99052.54
2023-03-26T20:01:35.930Z,99047.69
2023-03-26T20:04:10.705Z,99052.42
2023-03-26T20:06:43.769Z,99047.36
2023-03-26T20:09:15.676Z,99046.63
2023-03-26T20:11:46.692Z,99040.98
2023-03-26T20:14:21.681Z,99041.24
2023-03-26T20:16:51.808Z,99038.52
2023-03-26T20:19:23.275Z,99039.27
2023-03-26T20:21:53.475Z,99032.77
2023-03-26T20:24:28.688Z,99032.50
2023-03-26T20:26:58.191Z,99028.39
2023-03-26T20:29:28.198Z,99026.29
2023-03-26T20:32:01.470Z,99026.98
2023-03-26T20:34:31.622Z,99023.02
2023-03-26T20:37:02.242Z,99023.91
2023-03-26T20:39:31.471Z,99023.21
2023-03-26T20:42:03.858Z,99022.48
2023-03-26T20:44:33.029Z,99023.85
2023-03-26T20:47:03.722Z,99023.16
2023-03-26T20:49:32.777Z,99029.66
2023-03-26T20:52:02.263Z,99027.16
2023-03-26T20:54:31.108Z,99033.04
2023-03-26T20:57:02.281Z,99030.25
2023-03-26T20:59:31.478Z,99034.21
2023-03-26T21:02:00.945Z,99033.02
2023-03-26T21:04:32.290Z,99032.78
2023-03-26T21:07:17.548Z,99033.85
2023-03-26T21:09:48.956Z,99035.48
2023-03-26T21:12:28.987Z,99035.94
2023-03-26T21:14:59.586Z,99032.53
2023-03-26T21:17:30.246Z,99035.58
2023-03-26T21:20:10.215Z,99033.86
2023-03-26T21:22:45.869Z,99032.90
2023-03-26T21:25:29.113Z,99028.11
2023-03-26T21:28:15.632Z,99028.83
2023-03-26T21:30:46.535Z,99026.41
2023-03-26T21:33:17.052Z,99027.02
2023-03-26T21:35:52.414Z,99029.58
2023-03-26T21:38:23.762Z,99028.19
2023-03-26T21:40:58.818Z,99032.68
2023-03-26T21:43:31.462Z,99034.63
2023-03-26T21:46:01.829Z,99027.55
2023-03-26T21:48:31.704Z,99026.33
2023-03-26T21:51:04.689Z,99026.51
2023-03-26T21:53:35.982Z,99025.99
2023-03-26T21:56:18.144Z,99025.13
2023-03-26T21:58:55.172Z,99016.77
2023-03-26T22:01:35.682Z,99009.83
2023-03-26T22:04:14.435Z,99008.33
2023-03-26T22:06:49.933Z,99007.99
2023-03-26T22:09:26.392Z,99007.66
2023-03-26T22:12:03.181Z,99006.34
2023-03-26T22:14:33.418Z,99002.98
2023-03-26T22:17:03.178Z,99003.55
2023-03-26T22:19:34.019Z,99007.56
2023-03-26T22:22:07.159Z,99005.26
2023-03-26T22:24:36.574Z,99005.02
2023-03-26T22:27:05.616Z,99003.60
2023-03-26T22:29:35.366Z,99008.82
2023-03-26T22:32:07.186Z,99010.52
2023-03-26T22:34:38.292Z,99009.94
2023-03-26T22:37:07.859Z,99006.07
2023-03-26T22:39:37.284Z,99004.16
2023-03-26T22:42:08.846Z,99004.89
2023-03-26T22:44:37.953Z,99004.15
2023-03-26T22:47:07.704Z,99005.65
2023-03-26T22:49:37.857Z,99007.25
2023-03-26T22:52:08.095Z,99008.98
2023-03-26T22:54:37.273Z,99009.64
2023-03-26T22:57:07.110Z,99008.19
2023-03-26T22:59:36.544Z,99004.65
2023-03-26T23:02:07.195Z,99002.36
2023-03-26T23:04:37.266Z,99002.75
2023-03-26T23:07:08.728Z,99003.76
2023-03-26T23:09:37.962Z,99001.02
2023-03-26T23:12:08.486Z,98999.83
2023-03-26T23:14:37.805Z,98999.14
2023-03-26T23:17:13.917Z,98997.13
2023-03-26T23:19:44.163Z,98996.55
2023-03-26T23:22:13.652Z,98996.36
2023-03-26T23:24:42.538Z,98994.66
2023-03-26T23:27:13.324Z,98999.70
2023-03-26T23:29:45.264Z,98998.98
2023-03-26T23:32:24.278Z,99003.11
2023-03-26T23:34:55.273Z,99008.09
2023-03-26T23:37:24.243Z,99011.66
2023-03-26T23:39:53.171Z,99013.21
2023-03-26T23:42:29.252Z,99010.95
2023-03-26T23:45:00.567Z,99010.86
2023-03-26T23:47:34.083Z,99008.42
2023-03-26T23:50:07.214Z,99010.00
2023-03-26T23:52:37.529Z,99012.65
2023-03-26T23:55:08.217Z,99013.59
2023-03-26T23:57:37.198Z,99016.36
